VLG18VF LEBL-LFPO
Flight info
| Callsign | VLG18VF |
|---|---|
| Flight time | 1h 17m |
| Altitude | 36000 |
| Route | OLOXO DCT OKABI DCT TOU DCT DIBAG DCT TUDRA/N0413F280 DCT BEVOL UT158 AMB |
| Aircraft | A321/M-SDE3FGHIRWY/LB1 |
Departure
| Time | 2026-05-05 16:54 |
|---|---|
| Airport | Josep Tarradellas Barcelona-El Prat Airport (LEBL) |
Arrival
| Time | 2026-05-05 18:11 |
|---|---|
| Airport | Paris-Orly Airport (LFPO) |
| Time | Latitude | Longitude | Altitude | Speed | Heading |
|---|---|---|---|---|---|
| 2026-05-05 16:17 | 41.29105 | 2.08271 | 19 ft | 0 kts | 335° |
| 2026-05-05 16:42 | 41.29098 | 2.08276 | 20 ft | 4 kts | 335° |
| 2026-05-05 16:43 | 41.29074 | 2.08291 | 21 ft | 4 kts | 335° |
| 2026-05-05 16:43 | 41.29052 | 2.08304 | 22 ft | 4 kts | 343° |
| 2026-05-05 16:43 | 41.29030 | 2.08304 | 21 ft | 4 kts | 44° |
| 2026-05-05 16:43 | 41.29016 | 2.08275 | 19 ft | 4 kts | 70° |
| 2026-05-05 16:44 | 41.29009 | 2.08247 | 19 ft | 1 kts | 65° |
| 2026-05-05 16:44 | 41.29008 | 2.08246 | 19 ft | 0 kts | 65° |
| 2026-05-05 16:47 | 41.29009 | 2.08247 | 19 ft | 1 kts | 65° |
| 2026-05-05 16:47 | 41.29019 | 2.08280 | 20 ft | 7 kts | 67° |
| 2026-05-05 16:47 | 41.29019 | 2.08331 | 19 ft | 4 kts | 142° |
| 2026-05-05 16:47 | 41.28987 | 2.08346 | 18 ft | 6 kts | 181° |
| 2026-05-05 16:48 | 41.28920 | 2.08318 | 19 ft | 13 kts | 199° |
| 2026-05-05 16:48 | 41.28829 | 2.08277 | 19 ft | 15 kts | 199° |
| 2026-05-05 16:48 | 41.28730 | 2.08238 | 17 ft | 14 kts | 178° |
| 2026-05-05 16:48 | 41.28712 | 2.08284 | 18 ft | 6 kts | 86° |
| 2026-05-05 16:49 | 41.28739 | 2.08373 | 18 ft | 15 kts | 66° |
| 2026-05-05 16:49 | 41.28789 | 2.08514 | 21 ft | 21 kts | 65° |
| 2026-05-05 16:49 | 41.28853 | 2.08701 | 18 ft | 23 kts | 66° |
| 2026-05-05 16:49 | 41.28920 | 2.08903 | 18 ft | 24 kts | 66° |
| 2026-05-05 16:50 | 41.28990 | 2.09110 | 17 ft | 25 kts | 66° |
| 2026-05-05 16:50 | 41.29062 | 2.09322 | 19 ft | 25 kts | 65° |
| 2026-05-05 16:50 | 41.29138 | 2.09536 | 17 ft | 26 kts | 65° |
| 2026-05-05 16:50 | 41.29213 | 2.09753 | 18 ft | 26 kts | 65° |
| 2026-05-05 16:51 | 41.29272 | 2.09922 | 17 ft | 13 kts | 58° |
| 2026-05-05 16:51 | 41.29316 | 2.10021 | 17 ft | 13 kts | 68° |
| 2026-05-05 16:51 | 41.29355 | 2.10132 | 17 ft | 14 kts | 64° |
| 2026-05-05 16:51 | 41.29367 | 2.10251 | 15 ft | 11 kts | 133° |
| 2026-05-05 16:52 | 41.29330 | 2.10270 | 16 ft | 0 kts | 157° |
| 2026-05-05 16:52 | 41.29322 | 2.10274 | 15 ft | 2 kts | 157° |
| 2026-05-05 16:52 | 41.29298 | 2.10288 | 16 ft | 7 kts | 157° |
| 2026-05-05 16:52 | 41.29238 | 2.10305 | 16 ft | 9 kts | 186° |
| 2026-05-05 16:53 | 41.29197 | 2.10255 | 17 ft | 0 kts | 246° |
| 2026-05-05 16:53 | 41.29197 | 2.10253 | 17 ft | 5 kts | 246° |
| 2026-05-05 16:53 | 41.29075 | 2.09895 | 20 ft | 78 kts | 245° |
| 2026-05-05 16:53 | 41.28753 | 2.08968 | 21 ft | 140 kts | 244° |
| 2026-05-05 16:54 | 41.28287 | 2.07642 | 306 ft | 162 kts | 244° |
| 2026-05-05 16:54 | 41.27944 | 2.06756 | 811 ft | 158 kts | 230° |
| 2026-05-05 16:54 | 41.27031 | 2.05954 | 1328 ft | 169 kts | 195° |
| 2026-05-05 16:54 | 41.25802 | 2.05616 | 1618 ft | 190 kts | 191° |
| 2026-05-05 16:55 | 41.24448 | 2.05296 | 1915 ft | 207 kts | 192° |
| 2026-05-05 16:55 | 41.23004 | 2.04933 | 2372 ft | 215 kts | 192° |
| 2026-05-05 16:55 | 41.21512 | 2.04548 | 3110 ft | 216 kts | 193° |
| 2026-05-05 16:55 | 41.20029 | 2.04166 | 3945 ft | 219 kts | 195° |
| 2026-05-05 16:56 | 41.18643 | 2.03376 | 4735 ft | 218 kts | 219° |
| 2026-05-05 16:56 | 41.17615 | 2.01841 | 5281 ft | 228 kts | 234° |
| 2026-05-05 16:56 | 41.16665 | 2.00140 | 6052 ft | 230 kts | 233° |
| 2026-05-05 16:56 | 41.15682 | 1.98458 | 6757 ft | 231 kts | 232° |
| 2026-05-05 16:57 | 41.14701 | 1.96798 | 7435 ft | 232 kts | 232° |
| 2026-05-05 16:57 | 41.13705 | 1.95070 | 8142 ft | 233 kts | 238° |
| 2026-05-05 16:57 | 41.13037 | 1.93085 | 8709 ft | 241 kts | 252° |
| 2026-05-05 16:57 | 41.12549 | 1.90923 | 9320 ft | 246 kts | 252° |
| 2026-05-05 16:58 | 41.12053 | 1.88752 | 9927 ft | 251 kts | 253° |
| 2026-05-05 16:58 | 41.11608 | 1.86499 | 10521 ft | 254 kts | 262° |
| 2026-05-05 16:58 | 41.11628 | 1.84113 | 11128 ft | 262 kts | 277° |
| 2026-05-05 16:58 | 41.12193 | 1.81708 | 11283 ft | 286 kts | 289° |
| 2026-05-05 16:59 | 41.12954 | 1.79193 | 11403 ft | 308 kts | 290° |
| 2026-05-05 16:59 | 41.14044 | 1.76631 | 11549 ft | 332 kts | 306° |
| 2026-05-05 16:59 | 41.15798 | 1.74535 | 11926 ft | 348 kts | 325° |
| 2026-05-05 16:59 | 41.17925 | 1.72927 | 12477 ft | 354 kts | 328° |
| 2026-05-05 17:00 | 41.20112 | 1.71369 | 13070 ft | 360 kts | 333° |
| 2026-05-05 17:00 | 41.22529 | 1.70375 | 13659 ft | 370 kts | 347° |
| 2026-05-05 17:00 | 41.25110 | 1.69948 | 14189 ft | 376 kts | 350° |
| 2026-05-05 17:00 | 41.27712 | 1.69550 | 14750 ft | 379 kts | 350° |
| 2026-05-05 17:01 | 41.30344 | 1.69142 | 15309 ft | 382 kts | 349° |
| 2026-05-05 17:01 | 41.33004 | 1.68726 | 15866 ft | 386 kts | 349° |
| 2026-05-05 17:01 | 41.35680 | 1.68303 | 16469 ft | 388 kts | 349° |
| 2026-05-05 17:01 | 41.38370 | 1.67878 | 17042 ft | 391 kts | 349° |
| 2026-05-05 17:02 | 41.41094 | 1.67451 | 17580 ft | 395 kts | 349° |
| 2026-05-05 17:02 | 41.43831 | 1.67021 | 18116 ft | 399 kts | 349° |
| 2026-05-05 17:02 | 41.46601 | 1.66583 | 18594 ft | 403 kts | 349° |
| 2026-05-05 17:02 | 41.49398 | 1.66141 | 19066 ft | 406 kts | 349° |
| 2026-05-05 17:03 | 41.52215 | 1.65698 | 19536 ft | 410 kts | 348° |
| 2026-05-05 17:03 | 41.55060 | 1.65253 | 20006 ft | 413 kts | 348° |
| 2026-05-05 17:03 | 41.57932 | 1.64805 | 20493 ft | 417 kts | 348° |
| 2026-05-05 17:03 | 41.60822 | 1.64357 | 20958 ft | 420 kts | 348° |
| 2026-05-05 17:04 | 41.63740 | 1.63903 | 21421 ft | 424 kts | 348° |
| 2026-05-05 17:04 | 41.66686 | 1.63443 | 21888 ft | 428 kts | 347° |
| 2026-05-05 17:04 | 41.69660 | 1.62977 | 22338 ft | 432 kts | 347° |
| 2026-05-05 17:04 | 41.72654 | 1.62508 | 22757 ft | 435 kts | 347° |
| 2026-05-05 17:05 | 41.75675 | 1.62033 | 23183 ft | 439 kts | 347° |
| 2026-05-05 17:05 | 41.78725 | 1.61552 | 23589 ft | 442 kts | 347° |
| 2026-05-05 17:05 | 41.81761 | 1.61075 | 23923 ft | 445 kts | 347° |
| 2026-05-05 17:05 | 41.84849 | 1.60591 | 24269 ft | 448 kts | 347° |
| 2026-05-05 17:06 | 41.87992 | 1.60098 | 24608 ft | 451 kts | 346° |
| 2026-05-05 17:06 | 41.91129 | 1.59605 | 24956 ft | 454 kts | 346° |
| 2026-05-05 17:06 | 41.94233 | 1.59117 | 25279 ft | 457 kts | 346° |
| 2026-05-05 17:06 | 41.97438 | 1.58609 | 25629 ft | 460 kts | 346° |
| 2026-05-05 17:07 | 42.00621 | 1.58104 | 25994 ft | 462 kts | 346° |
| 2026-05-05 17:07 | 42.03780 | 1.57602 | 26333 ft | 464 kts | 346° |
| 2026-05-05 17:07 | 42.07003 | 1.57089 | 26671 ft | 467 kts | 346° |
| 2026-05-05 17:07 | 42.10241 | 1.56575 | 26964 ft | 470 kts | 346° |
| 2026-05-05 17:08 | 42.13503 | 1.56058 | 27231 ft | 473 kts | 346° |
| 2026-05-05 17:08 | 42.16776 | 1.55540 | 27553 ft | 475 kts | 346° |
| 2026-05-05 17:08 | 42.20058 | 1.55020 | 27919 ft | 476 kts | 346° |
| 2026-05-05 17:08 | 42.23344 | 1.54499 | 28155 ft | 477 kts | 346° |
| 2026-05-05 17:09 | 42.26657 | 1.53970 | 28475 ft | 480 kts | 346° |
| 2026-05-05 17:09 | 42.29985 | 1.53438 | 28797 ft | 482 kts | 346° |
| 2026-05-05 17:09 | 42.33322 | 1.52904 | 29074 ft | 485 kts | 346° |
| 2026-05-05 17:09 | 42.36674 | 1.52368 | 29469 ft | 486 kts | 347° |
| 2026-05-05 17:10 | 42.40041 | 1.51831 | 29862 ft | 487 kts | 347° |
| 2026-05-05 17:10 | 42.43407 | 1.51293 | 30149 ft | 489 kts | 347° |
| 2026-05-05 17:10 | 42.46796 | 1.50749 | 30402 ft | 491 kts | 347° |
| 2026-05-05 17:10 | 42.50186 | 1.50206 | 30766 ft | 490 kts | 347° |
| 2026-05-05 17:11 | 42.53573 | 1.49663 | 31111 ft | 489 kts | 347° |
| 2026-05-05 17:11 | 42.56949 | 1.49121 | 31436 ft | 488 kts | 347° |
| 2026-05-05 17:11 | 42.60316 | 1.48578 | 31802 ft | 488 kts | 347° |
| 2026-05-05 17:11 | 42.63685 | 1.48034 | 32174 ft | 487 kts | 347° |
| 2026-05-05 17:12 | 42.67052 | 1.47493 | 32482 ft | 486 kts | 347° |
| 2026-05-05 17:12 | 42.70411 | 1.46957 | 32831 ft | 486 kts | 347° |
| 2026-05-05 17:12 | 42.73763 | 1.46421 | 33177 ft | 485 kts | 347° |
| 2026-05-05 17:12 | 42.77115 | 1.45879 | 33497 ft | 484 kts | 347° |
| 2026-05-05 17:13 | 42.80456 | 1.45336 | 33795 ft | 483 kts | 347° |
| 2026-05-05 17:13 | 42.83793 | 1.44793 | 34072 ft | 483 kts | 347° |
| 2026-05-05 17:13 | 42.87093 | 1.44257 | 34288 ft | 483 kts | 347° |
| 2026-05-05 17:13 | 42.90466 | 1.43714 | 34576 ft | 482 kts | 347° |
| 2026-05-05 17:14 | 42.93806 | 1.43179 | 34853 ft | 481 kts | 348° |
| 2026-05-05 17:14 | 42.97078 | 1.42654 | 35108 ft | 480 kts | 347° |
| 2026-05-05 17:14 | 43.00401 | 1.42115 | 35364 ft | 479 kts | 347° |
| 2026-05-05 17:14 | 43.03700 | 1.41576 | 35667 ft | 478 kts | 348° |
| 2026-05-05 17:15 | 43.06997 | 1.41035 | 35911 ft | 477 kts | 348° |
| 2026-05-05 17:15 | 43.10294 | 1.40494 | 35981 ft | 476 kts | 348° |
| 2026-05-05 17:15 | 43.16851 | 1.39419 | 35986 ft | 475 kts | 348° |
| 2026-05-05 17:16 | 43.23411 | 1.38349 | 35987 ft | 474 kts | 348° |
| 2026-05-05 17:16 | 43.29961 | 1.37279 | 35981 ft | 474 kts | 348° |
| 2026-05-05 17:17 | 43.36511 | 1.36204 | 35975 ft | 474 kts | 348° |
| 2026-05-05 17:17 | 43.43057 | 1.35117 | 35996 ft | 474 kts | 348° |
| 2026-05-05 17:18 | 43.49613 | 1.34032 | 35991 ft | 475 kts | 349° |
| 2026-05-05 17:18 | 43.56170 | 1.32953 | 35985 ft | 475 kts | 349° |
| 2026-05-05 17:19 | 43.62734 | 1.31878 | 36005 ft | 475 kts | 349° |
| 2026-05-05 17:19 | 43.69293 | 1.30768 | 35999 ft | 474 kts | 348° |
| 2026-05-05 17:20 | 43.75801 | 1.29314 | 35994 ft | 473 kts | 345° |
| 2026-05-05 17:20 | 43.82267 | 1.27643 | 35988 ft | 473 kts | 345° |
| 2026-05-05 17:21 | 43.88735 | 1.26007 | 35985 ft | 473 kts | 346° |
| 2026-05-05 17:22 | 43.98460 | 1.23677 | 35968 ft | 473 kts | 346° |
| 2026-05-05 17:22 | 44.04947 | 1.22133 | 35979 ft | 473 kts | 347° |
| 2026-05-05 17:23 | 44.11428 | 1.20570 | 35974 ft | 473 kts | 347° |
| 2026-05-05 17:23 | 44.17864 | 1.19007 | 35965 ft | 472 kts | 346° |
| 2026-05-05 17:24 | 44.24344 | 1.17426 | 35971 ft | 472 kts | 347° |
| 2026-05-05 17:24 | 44.30804 | 1.15852 | 35958 ft | 471 kts | 347° |
| 2026-05-05 17:25 | 44.37267 | 1.14271 | 35972 ft | 471 kts | 347° |
| 2026-05-05 17:25 | 44.43723 | 1.12686 | 35969 ft | 471 kts | 347° |
| 2026-05-05 17:26 | 44.50170 | 1.11100 | 35955 ft | 471 kts | 347° |
| 2026-05-05 17:26 | 44.56620 | 1.09510 | 35947 ft | 470 kts | 347° |
| 2026-05-05 17:27 | 44.63062 | 1.07926 | 35948 ft | 470 kts | 347° |
| 2026-05-05 17:27 | 44.69503 | 1.06340 | 35948 ft | 470 kts | 347° |
| 2026-05-05 17:28 | 44.75943 | 1.04748 | 35951 ft | 470 kts | 347° |
| 2026-05-05 17:28 | 44.82385 | 1.03159 | 35946 ft | 470 kts | 347° |
| 2026-05-05 17:29 | 44.88830 | 1.01562 | 35946 ft | 470 kts | 347° |
| 2026-05-05 17:29 | 44.95266 | 0.99951 | 35946 ft | 470 kts | 347° |
| 2026-05-05 17:30 | 45.01703 | 0.98341 | 35964 ft | 470 kts | 348° |
| 2026-05-05 17:30 | 45.08099 | 0.96740 | 35958 ft | 470 kts | 348° |
| 2026-05-05 17:31 | 45.14541 | 0.95126 | 35954 ft | 470 kts | 348° |
| 2026-05-05 17:31 | 45.20975 | 0.93510 | 35947 ft | 470 kts | 348° |
| 2026-05-05 17:32 | 45.27407 | 0.91886 | 35945 ft | 469 kts | 348° |
| 2026-05-05 17:32 | 45.33848 | 0.90254 | 35947 ft | 469 kts | 348° |
| 2026-05-05 17:33 | 45.40269 | 0.88630 | 35956 ft | 469 kts | 348° |
| 2026-05-05 17:33 | 45.45611 | 0.87272 | 35957 ft | 469 kts | 348° |
| 2026-05-05 17:34 | 45.53112 | 0.85364 | 35957 ft | 469 kts | 348° |
| 2026-05-05 17:34 | 45.59532 | 0.83722 | 35960 ft | 468 kts | 348° |
| 2026-05-05 17:35 | 45.65955 | 0.82081 | 35957 ft | 468 kts | 348° |
| 2026-05-05 17:35 | 45.72373 | 0.80442 | 35950 ft | 468 kts | 348° |
| 2026-05-05 17:36 | 45.77707 | 0.79082 | 35949 ft | 469 kts | 351° |
| 2026-05-05 17:36 | 45.85293 | 0.78693 | 35948 ft | 470 kts | 359° |
| 2026-05-05 17:37 | 45.90771 | 0.78645 | 35928 ft | 470 kts | 359° |
| 2026-05-05 17:37 | 45.97307 | 0.78583 | 35933 ft | 469 kts | 359° |
| 2026-05-05 17:38 | 46.03837 | 0.78524 | 35922 ft | 469 kts | 359° |
| 2026-05-05 17:38 | 46.10362 | 0.78472 | 35916 ft | 469 kts | 359° |
| 2026-05-05 17:39 | 46.16880 | 0.78419 | 35910 ft | 468 kts | 359° |
| 2026-05-05 17:39 | 46.23401 | 0.78360 | 35915 ft | 468 kts | 359° |
| 2026-05-05 17:40 | 46.29900 | 0.78304 | 35904 ft | 468 kts | 359° |
| 2026-05-05 17:40 | 46.36377 | 0.78241 | 35896 ft | 468 kts | 359° |
| 2026-05-05 17:41 | 46.42930 | 0.78180 | 35892 ft | 468 kts | 359° |
| 2026-05-05 17:41 | 46.49439 | 0.78122 | 35882 ft | 468 kts | 359° |
| 2026-05-05 17:42 | 46.55881 | 0.78693 | 35882 ft | 468 kts | 12° |
| 2026-05-05 17:42 | 46.62244 | 0.80716 | 35886 ft | 468 kts | 12° |
| 2026-05-05 17:42 | 46.65422 | 0.81724 | 35742 ft | 468 kts | 12° |
| 2026-05-05 17:43 | 46.68598 | 0.82726 | 35492 ft | 465 kts | 12° |
| 2026-05-05 17:43 | 46.71747 | 0.83720 | 35219 ft | 461 kts | 12° |
| 2026-05-05 17:43 | 46.74876 | 0.84708 | 34701 ft | 460 kts | 13° |
| 2026-05-05 17:43 | 46.78006 | 0.85698 | 34177 ft | 460 kts | 13° |
| 2026-05-05 17:44 | 46.81136 | 0.86690 | 33618 ft | 459 kts | 13° |
| 2026-05-05 17:44 | 46.84240 | 0.87675 | 33120 ft | 455 kts | 13° |
| 2026-05-05 17:44 | 46.87325 | 0.88654 | 32624 ft | 452 kts | 14° |
| 2026-05-05 17:44 | 46.90386 | 0.89627 | 32115 ft | 448 kts | 14° |
| 2026-05-05 17:45 | 46.93419 | 0.90596 | 31670 ft | 443 kts | 14° |
| 2026-05-05 17:45 | 46.96411 | 0.91555 | 31300 ft | 436 kts | 14° |
| 2026-05-05 17:45 | 46.99364 | 0.92503 | 30830 ft | 431 kts | 15° |
| 2026-05-05 17:45 | 47.02273 | 0.93432 | 30472 ft | 424 kts | 15° |
| 2026-05-05 17:46 | 47.05138 | 0.94343 | 30061 ft | 419 kts | 15° |
| 2026-05-05 17:46 | 47.07969 | 0.95243 | 29601 ft | 413 kts | 15° |
| 2026-05-05 17:46 | 47.10765 | 0.96131 | 29076 ft | 410 kts | 15° |
| 2026-05-05 17:46 | 47.13540 | 0.97015 | 28503 ft | 407 kts | 15° |
| 2026-05-05 17:47 | 47.16306 | 0.97901 | 27905 ft | 405 kts | 15° |
| 2026-05-05 17:47 | 47.19033 | 0.98777 | 27505 ft | 399 kts | 15° |
| 2026-05-05 17:47 | 47.21738 | 0.99640 | 27100 ft | 393 kts | 15° |
| 2026-05-05 17:47 | 47.24387 | 1.00484 | 26716 ft | 388 kts | 15° |
| 2026-05-05 17:48 | 47.27014 | 1.01325 | 26315 ft | 384 kts | 14° |
| 2026-05-05 17:48 | 47.29609 | 1.02158 | 25941 ft | 380 kts | 14° |
| 2026-05-05 17:48 | 47.32189 | 1.02991 | 25547 ft | 378 kts | 14° |
| 2026-05-05 17:48 | 47.34738 | 1.03818 | 25152 ft | 375 kts | 14° |
| 2026-05-05 17:49 | 47.37286 | 1.04643 | 24761 ft | 373 kts | 14° |
| 2026-05-05 17:49 | 47.39819 | 1.05460 | 24348 ft | 371 kts | 14° |
| 2026-05-05 17:49 | 47.42299 | 1.06261 | 23952 ft | 369 kts | 15° |
| 2026-05-05 17:49 | 47.44737 | 1.07380 | 23548 ft | 366 kts | 21° |
| 2026-05-05 17:50 | 47.47144 | 1.08616 | 23081 ft | 365 kts | 20° |
| 2026-05-05 17:50 | 47.49564 | 1.09861 | 22655 ft | 362 kts | 21° |
| 2026-05-05 17:50 | 47.51903 | 1.11063 | 22251 ft | 360 kts | 20° |
| 2026-05-05 17:50 | 47.54259 | 1.12261 | 21841 ft | 358 kts | 19° |
| 2026-05-05 17:51 | 47.56610 | 1.13451 | 21432 ft | 356 kts | 19° |
| 2026-05-05 17:51 | 47.58954 | 1.14637 | 21027 ft | 355 kts | 19° |
| 2026-05-05 17:51 | 47.61283 | 1.15814 | 20628 ft | 352 kts | 19° |
| 2026-05-05 17:51 | 47.63602 | 1.16986 | 20226 ft | 351 kts | 19° |
| 2026-05-05 17:52 | 47.65907 | 1.18155 | 19829 ft | 349 kts | 19° |
| 2026-05-05 17:52 | 47.68199 | 1.19324 | 19427 ft | 348 kts | 18° |
| 2026-05-05 17:52 | 47.70489 | 1.20497 | 19031 ft | 348 kts | 18° |
| 2026-05-05 17:52 | 47.72779 | 1.21673 | 18628 ft | 346 kts | 18° |
| 2026-05-05 17:53 | 47.75050 | 1.22836 | 18234 ft | 345 kts | 18° |
| 2026-05-05 17:53 | 47.77318 | 1.23994 | 17821 ft | 344 kts | 18° |
| 2026-05-05 17:53 | 47.79567 | 1.25147 | 17427 ft | 341 kts | 18° |
| 2026-05-05 17:53 | 47.81814 | 1.26299 | 17032 ft | 341 kts | 18° |
| 2026-05-05 17:54 | 47.84045 | 1.27441 | 16645 ft | 338 kts | 18° |
| 2026-05-05 17:54 | 47.86266 | 1.28579 | 16263 ft | 336 kts | 18° |
| 2026-05-05 17:54 | 47.88474 | 1.29712 | 15874 ft | 334 kts | 18° |
| 2026-05-05 17:54 | 47.90660 | 1.30835 | 15499 ft | 332 kts | 18° |
| 2026-05-05 17:55 | 47.92838 | 1.31955 | 15127 ft | 330 kts | 18° |
| 2026-05-05 17:55 | 47.94979 | 1.33060 | 14753 ft | 328 kts | 18° |
| 2026-05-05 17:55 | 47.97130 | 1.34168 | 14382 ft | 326 kts | 18° |
| 2026-05-05 17:55 | 47.99266 | 1.35269 | 14008 ft | 324 kts | 18° |
| 2026-05-05 17:56 | 48.01392 | 1.36367 | 13635 ft | 322 kts | 17° |
| 2026-05-05 17:56 | 48.03499 | 1.37458 | 13237 ft | 319 kts | 18° |
| 2026-05-05 17:56 | 48.05572 | 1.38600 | 12875 ft | 317 kts | 23° |
| 2026-05-05 17:56 | 48.07462 | 1.40267 | 12604 ft | 314 kts | 33° |
| 2026-05-05 17:57 | 48.09276 | 1.42109 | 12366 ft | 316 kts | 32° |
| 2026-05-05 17:57 | 48.11093 | 1.43940 | 12122 ft | 313 kts | 33° |
| 2026-05-05 17:57 | 48.12878 | 1.45736 | 11860 ft | 306 kts | 33° |
| 2026-05-05 17:57 | 48.14634 | 1.47501 | 11568 ft | 304 kts | 33° |
| 2026-05-05 17:58 | 48.16399 | 1.49281 | 11245 ft | 301 kts | 33° |
| 2026-05-05 17:58 | 48.18106 | 1.51011 | 10940 ft | 299 kts | 33° |
| 2026-05-05 17:58 | 48.19828 | 1.52763 | 10629 ft | 298 kts | 33° |
| 2026-05-05 17:58 | 48.21537 | 1.54502 | 10313 ft | 297 kts | 33° |
| 2026-05-05 17:59 | 48.23240 | 1.56227 | 10075 ft | 293 kts | 34° |
| 2026-05-05 17:59 | 48.24932 | 1.57940 | 9772 ft | 288 kts | 34° |
| 2026-05-05 17:59 | 48.26566 | 1.59597 | 9456 ft | 285 kts | 34° |
| 2026-05-05 17:59 | 48.28188 | 1.61242 | 9196 ft | 280 kts | 34° |
| 2026-05-05 18:00 | 48.29803 | 1.62884 | 8943 ft | 279 kts | 34° |
| 2026-05-05 18:00 | 48.31405 | 1.64513 | 8676 ft | 277 kts | 34° |
| 2026-05-05 18:00 | 48.33015 | 1.66154 | 8455 ft | 274 kts | 34° |
| 2026-05-05 18:00 | 48.34569 | 1.67740 | 8201 ft | 275 kts | 34° |
| 2026-05-05 18:01 | 48.36143 | 1.69349 | 7958 ft | 272 kts | 34° |
| 2026-05-05 18:01 | 48.37721 | 1.70966 | 7710 ft | 270 kts | 34° |
| 2026-05-05 18:01 | 48.39251 | 1.72530 | 7476 ft | 271 kts | 33° |
| 2026-05-05 18:01 | 48.40820 | 1.74130 | 7232 ft | 272 kts | 32° |
| 2026-05-05 18:02 | 48.42384 | 1.75721 | 6995 ft | 271 kts | 32° |
| 2026-05-05 18:02 | 48.43939 | 1.77303 | 6753 ft | 267 kts | 33° |
| 2026-05-05 18:02 | 48.45472 | 1.78869 | 6523 ft | 265 kts | 33° |
| 2026-05-05 18:02 | 48.46998 | 1.80429 | 6290 ft | 264 kts | 33° |
| 2026-05-05 18:03 | 48.48519 | 1.81983 | 6047 ft | 263 kts | 33° |
| 2026-05-05 18:03 | 48.50031 | 1.83532 | 5813 ft | 263 kts | 33° |
| 2026-05-05 18:03 | 48.51537 | 1.85078 | 5581 ft | 261 kts | 33° |
| 2026-05-05 18:03 | 48.53035 | 1.86614 | 5351 ft | 259 kts | 33° |
| 2026-05-05 18:04 | 48.54520 | 1.88141 | 5125 ft | 259 kts | 33° |
| 2026-05-05 18:04 | 48.56005 | 1.89673 | 4971 ft | 255 kts | 33° |
| 2026-05-05 18:04 | 48.57418 | 1.91199 | 4871 ft | 245 kts | 41° |
| 2026-05-05 18:04 | 48.58398 | 1.93222 | 4766 ft | 237 kts | 61° |
| 2026-05-05 18:05 | 48.59133 | 1.95402 | 4677 ft | 231 kts | 59° |
| 2026-05-05 18:05 | 48.59856 | 1.97552 | 4571 ft | 229 kts | 61° |
| 2026-05-05 18:05 | 48.60583 | 1.99702 | 4441 ft | 229 kts | 60° |
| 2026-05-05 18:05 | 48.61327 | 2.01799 | 4353 ft | 227 kts | 59° |
| 2026-05-05 18:06 | 48.62078 | 2.03876 | 4246 ft | 220 kts | 59° |
| 2026-05-05 18:06 | 48.62564 | 2.05228 | 4179 ft | 213 kts | 59° |
| 2026-05-05 18:06 | 48.63495 | 2.07826 | 3888 ft | 212 kts | 59° |
| 2026-05-05 18:06 | 48.64182 | 2.09747 | 3627 ft | 202 kts | 58° |
| 2026-05-05 18:07 | 48.64831 | 2.11561 | 3350 ft | 191 kts | 58° |
| 2026-05-05 18:07 | 48.65452 | 2.13302 | 3102 ft | 180 kts | 59° |
| 2026-05-05 18:07 | 48.66028 | 2.14915 | 2854 ft | 174 kts | 59° |
| 2026-05-05 18:07 | 48.66591 | 2.16492 | 2626 ft | 166 kts | 58° |
| 2026-05-05 18:08 | 48.67129 | 2.18002 | 2421 ft | 161 kts | 59° |
| 2026-05-05 18:08 | 48.67640 | 2.19436 | 2211 ft | 153 kts | 58° |
| 2026-05-05 18:08 | 48.68138 | 2.20834 | 2013 ft | 150 kts | 58° |
| 2026-05-05 18:08 | 48.68629 | 2.22212 | 1827 ft | 144 kts | 59° |
| 2026-05-05 18:09 | 48.69091 | 2.23510 | 1633 ft | 140 kts | 58° |
| 2026-05-05 18:09 | 48.69549 | 2.24798 | 1420 ft | 140 kts | 59° |
| 2026-05-05 18:09 | 48.70020 | 2.26113 | 1216 ft | 140 kts | 57° |
| 2026-05-05 18:09 | 48.70473 | 2.27382 | 1031 ft | 139 kts | 58° |
| 2026-05-05 18:10 | 48.70940 | 2.28711 | 783 ft | 139 kts | 59° |
| 2026-05-05 18:10 | 48.71403 | 2.30018 | 635 ft | 141 kts | 59° |
| 2026-05-05 18:10 | 48.71861 | 2.31314 | 463 ft | 142 kts | 59° |
| 2026-05-05 18:10 | 48.72318 | 2.32601 | 313 ft | 137 kts | 57° |
| 2026-05-05 18:11 | 48.72707 | 2.33690 | 301 ft | 94 kts | 62° |
| 2026-05-05 18:11 | 48.72934 | 2.34333 | 296 ft | 43 kts | 62° |
| 2026-05-05 18:11 | 48.73012 | 2.34722 | 294 ft | 35 kts | 85° |
| 2026-05-05 18:11 | 48.73041 | 2.35052 | 294 ft | 28 kts | 82° |
| 2026-05-05 18:12 | 48.73007 | 2.35302 | 295 ft | 11 kts | 95° |
| 2026-05-05 18:12 | 48.73031 | 2.35372 | 295 ft | 6 kts | 66° |
| 2026-05-05 18:12 | 48.73053 | 2.35441 | 297 ft | 8 kts | 59° |
| 2026-05-05 18:12 | 48.73095 | 2.35556 | 297 ft | 16 kts | 75° |
| 2026-05-05 18:13 | 48.73077 | 2.35630 | 298 ft | 6 kts | 136° |
| 2026-05-05 18:13 | 48.73084 | 2.35717 | 296 ft | 12 kts | 59° |
| 2026-05-05 18:13 | 48.73114 | 2.35788 | 299 ft | 6 kts | 57° |
| 2026-05-05 18:13 | 48.73115 | 2.35826 | 295 ft | 2 kts | 121° |
| 2026-05-05 18:14 | 48.73102 | 2.35849 | 297 ft | 6 kts | 130° |
| 2026-05-05 18:14 | 48.73076 | 2.35891 | 298 ft | 4 kts | 132° |
| 2026-05-05 18:14 | 48.73073 | 2.35896 | 299 ft | 0 kts | 132° |